sensor_id;sensor_type;location;lat;lon;timestamp;temperature;humidity
37974;DHT22;23796;51.458;7.000;2024-02-16T00:00:11;13.70;87.60
37974;DHT22;23796;51.458;7.000;2024-02-16T00:02:38;13.70;87.50
37974;DHT22;23796;51.458;7.000;2024-02-16T00:05:05;13.70;87.60
37974;DHT22;23796;51.458;7.000;2024-02-16T00:07:33;13.70;87.60
37974;DHT22;23796;51.458;7.000;2024-02-16T00:09:58;13.70;87.40
37974;DHT22;23796;51.458;7.000;2024-02-16T00:12:26;13.80;87.40
37974;DHT22;23796;51.458;7.000;2024-02-16T00:14:52;13.80;87.20
37974;DHT22;23796;51.458;7.000;2024-02-16T00:17:18;13.80;87.00
37974;DHT22;23796;51.458;7.000;2024-02-16T00:19:43;13.90;87.00
37974;DHT22;23796;51.458;7.000;2024-02-16T00:22:09;13.90;87.00
37974;DHT22;23796;51.458;7.000;2024-02-16T00:24:34;13.90;87.00
37974;DHT22;23796;51.458;7.000;2024-02-16T00:27:06;13.90;86.90
37974;DHT22;23796;51.458;7.000;2024-02-16T00:29:32;13.90;86.70
37974;DHT22;23796;51.458;7.000;2024-02-16T00:31:58;14.00;86.60
37974;DHT22;23796;51.458;7.000;2024-02-16T00:34:25;14.00;86.60
37974;DHT22;23796;51.458;7.000;2024-02-16T00:36:52;14.00;86.50
37974;DHT22;23796;51.458;7.000;2024-02-16T00:39:18;14.00;86.30
37974;DHT22;23796;51.458;7.000;2024-02-16T00:41:44;14.10;86.00
37974;DHT22;23796;51.458;7.000;2024-02-16T00:44:15;14.10;86.10
37974;DHT22;23796;51.458;7.000;2024-02-16T00:46:44;14.10;86.10
37974;DHT22;23796;51.458;7.000;2024-02-16T00:49:09;14.10;86.00
37974;DHT22;23796;51.458;7.000;2024-02-16T00:51:38;14.10;85.90
37974;DHT22;23796;51.458;7.000;2024-02-16T00:54:04;14.10;86.00
37974;DHT22;23796;51.458;7.000;2024-02-16T00:56:32;14.10;86.00
37974;DHT22;23796;51.458;7.000;2024-02-16T00:58:58;14.00;86.10
37974;DHT22;23796;51.458;7.000;2024-02-16T01:01:24;14.00;86.10
37974;DHT22;23796;51.458;7.000;2024-02-16T01:03:52;14.00;86.10
37974;DHT22;23796;51.458;7.000;2024-02-16T01:06:18;14.00;86.20
37974;DHT22;23796;51.458;7.000;2024-02-16T01:08:43;14.00;86.20
37974;DHT22;23796;51.458;7.000;2024-02-16T01:11:09;14.00;86.10
37974;DHT22;23796;51.458;7.000;2024-02-16T01:13:35;14.00;86.20
37974;DHT22;23796;51.458;7.000;2024-02-16T01:16:02;14.00;86.50
37974;DHT22;23796;51.458;7.000;2024-02-16T01:18:28;13.90;86.70
37974;DHT22;23796;51.458;7.000;2024-02-16T01:20:55;13.90;86.70
37974;DHT22;23796;51.458;7.000;2024-02-16T01:23:21;13.90;86.60
37974;DHT22;23796;51.458;7.000;2024-02-16T01:25:47;13.90;86.60
37974;DHT22;23796;51.458;7.000;2024-02-16T01:28:15;13.90;86.50
37974;DHT22;23796;51.458;7.000;2024-02-16T01:30:41;14.00;86.40
37974;DHT22;23796;51.458;7.000;2024-02-16T01:33:07;14.00;86.30
37974;DHT22;23796;51.458;7.000;2024-02-16T01:35:33;14.00;86.10
37974;DHT22;23796;51.458;7.000;2024-02-16T01:37:59;14.10;86.10
37974;DHT22;23796;51.458;7.000;2024-02-16T01:40:26;14.10;86.00
37974;DHT22;23796;51.458;7.000;2024-02-16T01:42:52;14.10;86.10
37974;DHT22;23796;51.458;7.000;2024-02-16T01:45:18;14.00;86.10
37974;DHT22;23796;51.458;7.000;2024-02-16T01:47:49;14.00;86.20
37974;DHT22;23796;51.458;7.000;2024-02-16T01:50:17;14.00;86.00
37974;DHT22;23796;51.458;7.000;2024-02-16T01:52:47;14.00;86.00
37974;DHT22;23796;51.458;7.000;2024-02-16T01:55:14;14.00;86.00
37974;DHT22;23796;51.458;7.000;2024-02-16T01:57:43;14.00;86.10
37974;DHT22;23796;51.458;7.000;2024-02-16T02:00:14;14.00;86.10
37974;DHT22;23796;51.458;7.000;2024-02-16T02:02:46;14.10;86.00
37974;DHT22;23796;51.458;7.000;2024-02-16T02:05:12;14.10;86.00
37974;DHT22;23796;51.458;7.000;2024-02-16T02:07:38;14.10;86.10
37974;DHT22;23796;51.458;7.000;2024-02-16T02:10:04;14.10;86.10
37974;DHT22;23796;51.458;7.000;2024-02-16T02:12:30;14.10;86.10
37974;DHT22;23796;51.458;7.000;2024-02-16T02:14:55;14.10;86.20
37974;DHT22;23796;51.458;7.000;2024-02-16T02:17:21;14.10;86.20
37974;DHT22;23796;51.458;7.000;2024-02-16T02:19:47;14.10;86.20
37974;DHT22;23796;51.458;7.000;2024-02-16T02:22:17;14.00;86.30
37974;DHT22;23796;51.458;7.000;2024-02-16T02:24:43;13.90;86.60
37974;DHT22;23796;51.458;7.000;2024-02-16T02:27:12;13.90;86.70
37974;DHT22;23796;51.458;7.000;2024-02-16T02:29:38;13.90;86.70
37974;DHT22;23796;51.458;7.000;2024-02-16T02:32:04;14.00;86.50
37974;DHT22;23796;51.458;7.000;2024-02-16T02:34:30;14.10;86.30
37974;DHT22;23796;51.458;7.000;2024-02-16T02:37:00;14.20;86.10
37974;DHT22;23796;51.458;7.000;2024-02-16T02:39:27;14.20;86.00
37974;DHT22;23796;51.458;7.000;2024-02-16T02:41:52;14.20;86.00
37974;DHT22;23796;51.458;7.000;2024-02-16T02:44:23;14.20;86.00
37974;DHT22;23796;51.458;7.000;2024-02-16T02:46:51;14.20;86.10
37974;DHT22;23796;51.458;7.000;2024-02-16T02:49:17;14.20;86.30
37974;DHT22;23796;51.458;7.000;2024-02-16T02:51:43;14.20;86.40
37974;DHT22;23796;51.458;7.000;2024-02-16T02:54:09;14.20;86.20
37974;DHT22;23796;51.458;7.000;2024-02-16T02:56:34;14.10;86.40
37974;DHT22;23796;51.458;7.000;2024-02-16T02:59:00;14.10;86.50
37974;DHT22;23796;51.458;7.000;2024-02-16T03:01:26;14.00;86.70
37974;DHT22;23796;51.458;7.000;2024-02-16T03:03:51;14.00;86.90
37974;DHT22;23796;51.458;7.000;2024-02-16T03:06:18;13.90;87.10
37974;DHT22;23796;51.458;7.000;2024-02-16T03:08:43;13.90;87.20
37974;DHT22;23796;51.458;7.000;2024-02-16T03:11:11;14.00;87.10
37974;DHT22;23796;51.458;7.000;2024-02-16T03:13:37;14.00;87.20
37974;DHT22;23796;51.458;7.000;2024-02-16T03:16:03;14.00;87.00
37974;DHT22;23796;51.458;7.000;2024-02-16T03:18:30;14.10;87.10
37974;DHT22;23796;51.458;7.000;2024-02-16T03:20:58;14.10;87.10
37974;DHT22;23796;51.458;7.000;2024-02-16T03:23:24;14.10;87.20
37974;DHT22;23796;51.458;7.000;2024-02-16T03:25:49;14.10;87.20
37974;DHT22;23796;51.458;7.000;2024-02-16T03:28:15;14.10;87.30
37974;DHT22;23796;51.458;7.000;2024-02-16T03:30:42;14.00;87.40
37974;DHT22;23796;51.458;7.000;2024-02-16T03:33:10;13.90;87.70
37974;DHT22;23796;51.458;7.000;2024-02-16T03:35:36;13.90;87.90
37974;DHT22;23796;51.458;7.000;2024-02-16T03:38:02;13.80;88.10
37974;DHT22;23796;51.458;7.000;2024-02-16T03:40:30;13.80;88.20
37974;DHT22;23796;51.458;7.000;2024-02-16T03:42:56;13.80;88.20
37974;DHT22;23796;51.458;7.000;2024-02-16T03:45:23;13.90;88.20
37974;DHT22;23796;51.458;7.000;2024-02-16T03:47:49;13.90;88.10
37974;DHT22;23796;51.458;7.000;2024-02-16T03:50:17;13.90;88.00
37974;DHT22;23796;51.458;7.000;2024-02-16T03:52:43;13.90;88.10
37974;DHT22;23796;51.458;7.000;2024-02-16T03:55:09;13.90;88.10
37974;DHT22;23796;51.458;7.000;2024-02-16T03:57:34;13.90;88.00
37974;DHT22;23796;51.458;7.000;2024-02-16T04:00:00;13.90;87.90
37974;DHT22;23796;51.458;7.000;2024-02-16T04:02:25;13.90;88.00
37974;DHT22;23796;51.458;7.000;2024-02-16T04:04:53;13.90;88.20
37974;DHT22;23796;51.458;7.000;2024-02-16T04:07:19;13.90;88.20
37974;DHT22;23796;51.458;7.000;2024-02-16T04:09:45;13.90;88.20
37974;DHT22;23796;51.458;7.000;2024-02-16T04:12:10;14.00;88.20
37974;DHT22;23796;51.458;7.000;2024-02-16T04:14:36;14.00;88.20
37974;DHT22;23796;51.458;7.000;2024-02-16T04:17:04;14.00;88.20
37974;DHT22;23796;51.458;7.000;2024-02-16T04:19:29;14.00;88.20
37974;DHT22;23796;51.458;7.000;2024-02-16T04:21:55;14.00;88.30
37974;DHT22;23796;51.458;7.000;2024-02-16T04:24:26;13.90;88.50
37974;DHT22;23796;51.458;7.000;2024-02-16T04:26:51;13.80;88.70
37974;DHT22;23796;51.458;7.000;2024-02-16T04:29:17;13.80;88.90
37974;DHT22;23796;51.458;7.000;2024-02-16T04:31:45;13.80;89.00
37974;DHT22;23796;51.458;7.000;2024-02-16T04:34:12;13.80;89.10
37974;DHT22;23796;51.458;7.000;2024-02-16T04:36:37;13.80;89.10
37974;DHT22;23796;51.458;7.000;2024-02-16T04:39:03;13.90;89.00
37974;DHT22;23796;51.458;7.000;2024-02-16T04:41:29;13.90;89.00
37974;DHT22;23796;51.458;7.000;2024-02-16T04:43:54;13.90;89.00
37974;DHT22;23796;51.458;7.000;2024-02-16T04:46:21;13.80;89.20
37974;DHT22;23796;51.458;7.000;2024-02-16T04:48:46;13.80;89.30
37974;DHT22;23796;51.458;7.000;2024-02-16T04:51:12;13.80;89.50
37974;DHT22;23796;51.458;7.000;2024-02-16T04:53:38;13.70;89.70
37974;DHT22;23796;51.458;7.000;2024-02-16T04:56:04;13.70;89.80
37974;DHT22;23796;51.458;7.000;2024-02-16T04:58:32;13.70;89.90
37974;DHT22;23796;51.458;7.000;2024-02-16T05:00:58;13.70;90.20
37974;DHT22;23796;51.458;7.000;2024-02-16T05:03:24;13.60;90.30
37974;DHT22;23796;51.458;7.000;2024-02-16T05:05:50;13.60;90.50
37974;DHT22;23796;51.458;7.000;2024-02-16T05:08:17;13.50;90.80
37974;DHT22;23796;51.458;7.000;2024-02-16T05:10:42;13.50;90.90
37974;DHT22;23796;51.458;7.000;2024-02-16T05:13:08;13.50;91.10
37974;DHT22;23796;51.458;7.000;2024-02-16T05:15:34;13.50;91.30
37974;DHT22;23796;51.458;7.000;2024-02-16T05:17:59;13.50;91.30
37974;DHT22;23796;51.458;7.000;2024-02-16T05:20:25;13.50;91.40
37974;DHT22;23796;51.458;7.000;2024-02-16T05:22:51;13.50;91.50
37974;DHT22;23796;51.458;7.000;2024-02-16T05:25:19;13.50;91.60
37974;DHT22;23796;51.458;7.000;2024-02-16T05:27:47;13.50;91.70
37974;DHT22;23796;51.458;7.000;2024-02-16T05:30:15;13.50;91.90
37974;DHT22;23796;51.458;7.000;2024-02-16T05:32:44;13.50;92.10
37974;DHT22;23796;51.458;7.000;2024-02-16T05:35:10;13.40;92.40
37974;DHT22;23796;51.458;7.000;2024-02-16T05:37:47;13.40;92.40
37974;DHT22;23796;51.458;7.000;2024-02-16T05:40:22;13.40;92.70
37974;DHT22;23796;51.458;7.000;2024-02-16T05:42:55;13.40;92.90
37974;DHT22;23796;51.458;7.000;2024-02-16T05:45:26;13.40;92.90
37974;DHT22;23796;51.458;7.000;2024-02-16T05:47:52;13.30;93.20
37974;DHT22;23796;51.458;7.000;2024-02-16T05:50:20;13.30;93.30
37974;DHT22;23796;51.458;7.000;2024-02-16T05:52:46;13.30;93.30
37974;DHT22;23796;51.458;7.000;2024-02-16T05:55:15;13.40;93.40
37974;DHT22;23796;51.458;7.000;2024-02-16T05:57:40;13.30;93.50
37974;DHT22;23796;51.458;7.000;2024-02-16T06:00:12;13.30;93.60
37974;DHT22;23796;51.458;7.000;2024-02-16T06:02:38;13.30;93.70
37974;DHT22;23796;51.458;7.000;2024-02-16T06:05:07;13.30;93.80
37974;DHT22;23796;51.458;7.000;2024-02-16T06:07:33;13.30;93.90
37974;DHT22;23796;51.458;7.000;2024-02-16T06:10:00;13.30;93.90
37974;DHT22;23796;51.458;7.000;2024-02-16T06:12:29;13.30;93.90
37974;DHT22;23796;51.458;7.000;2024-02-16T06:14:55;13.30;93.90
37974;DHT22;23796;51.458;7.000;2024-02-16T06:17:21;13.30;94.00
37974;DHT22;23796;51.458;7.000;2024-02-16T06:19:47;13.30;94.00
37974;DHT22;23796;51.458;7.000;2024-02-16T06:22:13;13.30;94.00
37974;DHT22;23796;51.458;7.000;2024-02-16T06:24:40;13.30;93.90
37974;DHT22;23796;51.458;7.000;2024-02-16T06:27:05;13.40;93.90
37974;DHT22;23796;51.458;7.000;2024-02-16T06:29:34;13.40;93.80
37974;DHT22;23796;51.458;7.000;2024-02-16T06:31:59;13.50;93.60
37974;DHT22;23796;51.458;7.000;2024-02-16T06:34:27;13.60;93.20
37974;DHT22;23796;51.458;7.000;2024-02-16T06:36:53;13.60;93.10
37974;DHT22;23796;51.458;7.000;2024-02-16T06:39:18;13.60;93.00
37974;DHT22;23796;51.458;7.000;2024-02-16T06:41:49;13.60;92.90
37974;DHT22;23796;51.458;7.000;2024-02-16T06:44:16;13.70;92.80
37974;DHT22;23796;51.458;7.000;2024-02-16T06:46:42;13.70;92.60
37974;DHT22;23796;51.458;7.000;2024-02-16T06:49:11;13.70;92.60
37974;DHT22;23796;51.458;7.000;2024-02-16T06:51:37;13.70;92.60
37974;DHT22;23796;51.458;7.000;2024-02-16T06:54:03;13.70;92.70
37974;DHT22;23796;51.458;7.000;2024-02-16T06:56:29;13.70;92.60
37974;DHT22;23796;51.458;7.000;2024-02-16T06:58:58;13.70;92.50
37974;DHT22;23796;51.458;7.000;2024-02-16T07:01:26;13.80;92.40
37974;DHT22;23796;51.458;7.000;2024-02-16T07:03:53;13.80;92.20
37974;DHT22;23796;51.458;7.000;2024-02-16T07:06:18;13.90;92.00
37974;DHT22;23796;51.458;7.000;2024-02-16T07:08:44;13.90;91.80
37974;DHT22;23796;51.458;7.000;2024-02-16T07:11:12;14.00;91.50
37974;DHT22;23796;51.458;7.000;2024-02-16T07:13:40;14.00;91.30
37974;DHT22;23796;51.458;7.000;2024-02-16T07:16:09;14.10;91.20
37974;DHT22;23796;51.458;7.000;2024-02-16T07:18:35;14.10;91.00
37974;DHT22;23796;51.458;7.000;2024-02-16T07:21:01;14.20;90.90
37974;DHT22;23796;51.458;7.000;2024-02-16T07:23:27;14.20;90.80
37974;DHT22;23796;51.458;7.000;2024-02-16T07:25:53;14.20;90.70
37974;DHT22;23796;51.458;7.000;2024-02-16T07:28:25;14.20;90.80
37974;DHT22;23796;51.458;7.000;2024-02-16T07:30:51;14.10;90.80
37974;DHT22;23796;51.458;7.000;2024-02-16T07:33:17;14.10;90.90
37974;DHT22;23796;51.458;7.000;2024-02-16T07:35:43;14.10;90.90
37974;DHT22;23796;51.458;7.000;2024-02-16T07:38:09;14.10;90.80
37974;DHT22;23796;51.458;7.000;2024-02-16T07:40:35;14.10;90.80
37974;DHT22;23796;51.458;7.000;2024-02-16T07:43:01;14.20;90.60
37974;DHT22;23796;51.458;7.000;2024-02-16T07:45:29;14.20;90.60
37974;DHT22;23796;51.458;7.000;2024-02-16T07:47:55;14.20;90.40
37974;DHT22;23796;51.458;7.000;2024-02-16T07:50:22;14.20;90.30
37974;DHT22;23796;51.458;7.000;2024-02-16T07:52:49;14.30;90.30
37974;DHT22;23796;51.458;7.000;2024-02-16T07:55:14;14.30;90.30
37974;DHT22;23796;51.458;7.000;2024-02-16T07:57:42;14.40;90.00
37974;DHT22;23796;51.458;7.000;2024-02-16T08:00:08;14.50;89.80
37974;DHT22;23796;51.458;7.000;2024-02-16T08:02:36;14.60;89.50
37974;DHT22;23796;51.458;7.000;2024-02-16T08:05:02;14.70;89.30
37974;DHT22;23796;51.458;7.000;2024-02-16T08:07:28;14.80;88.90
37974;DHT22;23796;51.458;7.000;2024-02-16T08:09:54;14.80;88.80
37974;DHT22;23796;51.458;7.000;2024-02-16T08:12:19;14.80;88.60
37974;DHT22;23796;51.458;7.000;2024-02-16T08:14:45;14.90;88.60
37974;DHT22;23796;51.458;7.000;2024-02-16T08:17:11;14.90;88.60
37974;DHT22;23796;51.458;7.000;2024-02-16T08:19:37;14.80;88.50
37974;DHT22;23796;51.458;7.000;2024-02-16T08:22:05;14.80;88.60
37974;DHT22;23796;51.458;7.000;2024-02-16T08:24:37;14.80;88.60
37974;DHT22;23796;51.458;7.000;2024-02-16T08:27:03;14.80;88.60
37974;DHT22;23796;51.458;7.000;2024-02-16T08:29:29;14.90;88.60
37974;DHT22;23796;51.458;7.000;2024-02-16T08:31:55;14.90;88.50
37974;DHT22;23796;51.458;7.000;2024-02-16T08:34:23;14.90;88.40
37974;DHT22;23796;51.458;7.000;2024-02-16T08:36:51;14.90;88.40
37974;DHT22;23796;51.458;7.000;2024-02-16T08:39:17;15.00;88.40
37974;DHT22;23796;51.458;7.000;2024-02-16T08:41:44;15.00;88.20
37974;DHT22;23796;51.458;7.000;2024-02-16T08:44:10;15.10;88.10
37974;DHT22;23796;51.458;7.000;2024-02-16T08:46:38;15.10;88.10
37974;DHT22;23796;51.458;7.000;2024-02-16T08:49:04;15.20;87.90
37974;DHT22;23796;51.458;7.000;2024-02-16T08:51:32;15.30;87.70
37974;DHT22;23796;51.458;7.000;2024-02-16T08:53:58;15.30;87.40
37974;DHT22;23796;51.458;7.000;2024-02-16T08:56:23;15.30;87.40
37974;DHT22;23796;51.458;7.000;2024-02-16T08:58:49;15.40;87.40
37974;DHT22;23796;51.458;7.000;2024-02-16T09:01:14;15.40;87.40
37974;DHT22;23796;51.458;7.000;2024-02-16T09:03:42;15.40;87.30
37974;DHT22;23796;51.458;7.000;2024-02-16T09:06:08;15.30;87.30
37974;DHT22;23796;51.458;7.000;2024-02-16T09:08:33;15.30;87.50
37974;DHT22;23796;51.458;7.000;2024-02-16T09:11:03;15.40;87.50
37974;DHT22;23796;51.458;7.000;2024-02-16T09:13:33;15.40;87.50
37974;DHT22;23796;51.458;7.000;2024-02-16T09:16:00;15.50;87.50
37974;DHT22;23796;51.458;7.000;2024-02-16T09:18:26;15.50;87.50
37974;DHT22;23796;51.458;7.000;2024-02-16T09:20:51;15.50;87.60
37974;DHT22;23796;51.458;7.000;2024-02-16T09:23:17;15.50;87.80
37974;DHT22;23796;51.458;7.000;2024-02-16T09:25:43;15.50;88.40
37974;DHT22;23796;51.458;7.000;2024-02-16T09:28:09;15.60;89.10
37974;DHT22;23796;51.458;7.000;2024-02-16T09:30:36;15.70;88.90
37974;DHT22;23796;51.458;7.000;2024-02-16T09:33:02;15.80;89.10
37974;DHT22;23796;51.458;7.000;2024-02-16T09:35:28;15.80;88.60
37974;DHT22;23796;51.458;7.000;2024-02-16T09:37:53;15.90;88.60
37974;DHT22;23796;51.458;7.000;2024-02-16T09:40:19;15.90;88.30
37974;DHT22;23796;51.458;7.000;2024-02-16T09:42:48;15.90;88.00
37974;DHT22;23796;51.458;7.000;2024-02-16T09:45:17;16.00;87.80
37974;DHT22;23796;51.458;7.000;2024-02-16T09:47:46;16.00;87.80
37974;DHT22;23796;51.458;7.000;2024-02-16T09:50:15;16.00;88.00
37974;DHT22;23796;51.458;7.000;2024-02-16T09:52:41;16.10;87.80
37974;DHT22;23796;51.458;7.000;2024-02-16T09:55:13;16.10;87.60
37974;DHT22;23796;51.458;7.000;2024-02-16T09:57:38;16.20;87.30
37974;DHT22;23796;51.458;7.000;2024-02-16T10:00:05;16.20;87.20
37974;DHT22;23796;51.458;7.000;2024-02-16T10:02:44;16.20;87.10
37974;DHT22;23796;51.458;7.000;2024-02-16T10:05:14;16.20;87.30
37974;DHT22;23796;51.458;7.000;2024-02-16T10:07:41;16.30;86.80
37974;DHT22;23796;51.458;7.000;2024-02-16T10:10:27;16.30;86.80
37974;DHT22;23796;51.458;7.000;2024-02-16T10:13:04;16.30;86.80
37974;DHT22;23796;51.458;7.000;2024-02-16T10:15:31;16.30;86.70
37974;DHT22;23796;51.458;7.000;2024-02-16T10:18:06;16.20;87.10
37974;DHT22;23796;51.458;7.000;2024-02-16T10:20:33;16.20;87.20
37974;DHT22;23796;51.458;7.000;2024-02-16T10:23:11;16.20;87.30
37974;DHT22;23796;51.458;7.000;2024-02-16T10:25:40;16.20;87.40
37974;DHT22;23796;51.458;7.000;2024-02-16T10:28:10;16.20;87.50
37974;DHT22;23796;51.458;7.000;2024-02-16T10:30:39;16.10;87.70
37974;DHT22;23796;51.458;7.000;2024-02-16T10:33:06;16.20;87.60
37974;DHT22;23796;51.458;7.000;2024-02-16T10:35:37;16.20;87.50
37974;DHT22;23796;51.458;7.000;2024-02-16T10:38:07;16.30;87.30
37974;DHT22;23796;51.458;7.000;2024-02-16T10:40:41;16.40;87.30
37974;DHT22;23796;51.458;7.000;2024-02-16T10:43:08;16.50;87.00
37974;DHT22;23796;51.458;7.000;2024-02-16T10:45:39;16.60;86.80
37974;DHT22;23796;51.458;7.000;2024-02-16T10:48:07;16.70;86.70
37974;DHT22;23796;51.458;7.000;2024-02-16T10:50:37;16.60;86.60
37974;DHT22;23796;51.458;7.000;2024-02-16T10:53:23;16.50;86.90
37974;DHT22;23796;51.458;7.000;2024-02-16T10:55:53;16.50;87.00
37974;DHT22;23796;51.458;7.000;2024-02-16T10:58:21;16.50;87.00
37974;DHT22;23796;51.458;7.000;2024-02-16T11:00:51;16.50;87.10
37974;DHT22;23796;51.458;7.000;2024-02-16T11:03:21;16.60;87.00
37974;DHT22;23796;51.458;7.000;2024-02-16T11:05:48;16.50;87.10
37974;DHT22;23796;51.458;7.000;2024-02-16T11:08:18;16.50;87.30
37974;DHT22;23796;51.458;7.000;2024-02-16T11:11:02;16.50;87.40
37974;DHT22;23796;51.458;7.000;2024-02-16T11:13:33;16.50;87.50
37974;DHT22;23796;51.458;7.000;2024-02-16T11:16:01;16.50;87.60
37974;DHT22;23796;51.458;7.000;2024-02-16T11:18:30;16.50;87.70
37974;DHT22;23796;51.458;7.000;2024-02-16T11:21:00;16.40;87.70
37974;DHT22;23796;51.458;7.000;2024-02-16T11:23:36;16.40;88.00
37974;DHT22;23796;51.458;7.000;2024-02-16T11:26:08;16.30;88.30
37974;DHT22;23796;51.458;7.000;2024-02-16T11:28:38;16.30;88.30
37974;DHT22;23796;51.458;7.000;2024-02-16T11:31:04;16.20;88.70
37974;DHT22;23796;51.458;7.000;2024-02-16T11:33:30;16.10;89.00
37974;DHT22;23796;51.458;7.000;2024-02-16T11:36:05;16.10;89.30
37974;DHT22;23796;51.458;7.000;2024-02-16T11:38:36;16.10;89.40
37974;DHT22;23796;51.458;7.000;2024-02-16T11:41:07;16.10;89.70
37974;DHT22;23796;51.458;7.000;2024-02-16T11:43:35;16.00;89.90
37974;DHT22;23796;51.458;7.000;2024-02-16T11:46:14;15.90;90.30
37974;DHT22;23796;51.458;7.000;2024-02-16T11:48:43;15.90;90.50
37974;DHT22;23796;51.458;7.000;2024-02-16T11:51:08;15.90;90.70
37974;DHT22;23796;51.458;7.000;2024-02-16T11:53:34;15.90;90.80
37974;DHT22;23796;51.458;7.000;2024-02-16T11:56:00;15.90;91.10
37974;DHT22;23796;51.458;7.000;2024-02-16T11:58:26;15.90;91.10
37974;DHT22;23796;51.458;7.000;2024-02-16T12:00:53;15.90;91.10
37974;DHT22;23796;51.458;7.000;2024-02-16T12:03:25;16.00;91.10
37974;DHT22;23796;51.458;7.000;2024-02-16T12:05:54;16.00;91.10
37974;DHT22;23796;51.458;7.000;2024-02-16T12:08:20;15.90;91.20
37974;DHT22;23796;51.458;7.000;2024-02-16T12:10:50;15.80;91.50
37974;DHT22;23796;51.458;7.000;2024-02-16T12:13:19;15.80;91.70
37974;DHT22;23796;51.458;7.000;2024-02-16T12:15:47;15.70;92.00
37974;DHT22;23796;51.458;7.000;2024-02-16T12:18:24;15.70;92.20
37974;DHT22;23796;51.458;7.000;2024-02-16T12:21:06;15.80;92.30
37974;DHT22;23796;51.458;7.000;2024-02-16T12:23:33;15.80;92.40
37974;DHT22;23796;51.458;7.000;2024-02-16T12:26:02;15.70;92.50
37974;DHT22;23796;51.458;7.000;2024-02-16T12:28:29;15.70;93.00
37974;DHT22;23796;51.458;7.000;2024-02-16T12:30:56;15.70;92.90
37974;DHT22;23796;51.458;7.000;2024-02-16T12:33:22;15.70;93.40
37974;DHT22;23796;51.458;7.000;2024-02-16T12:35:48;15.60;93.50
37974;DHT22;23796;51.458;7.000;2024-02-16T12:38:14;15.60;93.60
37974;DHT22;23796;51.458;7.000;2024-02-16T12:40:42;15.60;93.90
37974;DHT22;23796;51.458;7.000;2024-02-16T12:43:08;15.60;94.10
37974;DHT22;23796;51.458;7.000;2024-02-16T12:45:36;15.60;94.10
37974;DHT22;23796;51.458;7.000;2024-02-16T12:48:02;15.60;94.10
37974;DHT22;23796;51.458;7.000;2024-02-16T12:50:30;15.70;94.20
37974;DHT22;23796;51.458;7.000;2024-02-16T12:52:55;15.60;94.30
37974;DHT22;23796;51.458;7.000;2024-02-16T12:55:22;15.60;94.80
37974;DHT22;23796;51.458;7.000;2024-02-16T12:57:49;15.50;95.20
37974;DHT22;23796;51.458;7.000;2024-02-16T13:00:15;15.50;95.40
37974;DHT22;23796;51.458;7.000;2024-02-16T13:02:40;15.50;95.40
37974;DHT22;23796;51.458;7.000;2024-02-16T13:05:06;15.50;95.60
37974;DHT22;23796;51.458;7.000;2024-02-16T13:07:33;15.40;96.00
37974;DHT22;23796;51.458;7.000;2024-02-16T13:09:59;15.20;96.90
37974;DHT22;23796;51.458;7.000;2024-02-16T13:12:28;15.20;97.20
37974;DHT22;23796;51.458;7.000;2024-02-16T13:14:54;15.20;97.50
37974;DHT22;23796;51.458;7.000;2024-02-16T13:17:19;15.20;97.80
37974;DHT22;23796;51.458;7.000;2024-02-16T13:19:45;15.10;98.30
37974;DHT22;23796;51.458;7.000;2024-02-16T13:22:10;15.10;98.60
37974;DHT22;23796;51.458;7.000;2024-02-16T13:24:36;15.20;98.40
37974;DHT22;23796;51.458;7.000;2024-02-16T13:27:04;15.10;98.50
37974;DHT22;23796;51.458;7.000;2024-02-16T13:29:32;15.10;98.50
37974;DHT22;23796;51.458;7.000;2024-02-16T13:31:58;15.10;98.70
37974;DHT22;23796;51.458;7.000;2024-02-16T13:34:23;15.10;99.20
37974;DHT22;23796;51.458;7.000;2024-02-16T13:36:50;15.00;99.50
37974;DHT22;23796;51.458;7.000;2024-02-16T13:39:18;15.00;99.90
37974;DHT22;23796;51.458;7.000;2024-02-16T13:41:47;15.00;99.90
37974;DHT22;23796;51.458;7.000;2024-02-16T13:44:13;14.90;99.90
37974;DHT22;23796;51.458;7.000;2024-02-16T13:46:39;14.90;99.90
37974;DHT22;23796;51.458;7.000;2024-02-16T13:49:05;14.80;99.90
37974;DHT22;23796;51.458;7.000;2024-02-16T13:51:30;14.80;99.90
37974;DHT22;23796;51.458;7.000;2024-02-16T13:53:56;14.90;99.90
37974;DHT22;23796;51.458;7.000;2024-02-16T13:56:21;14.80;99.90
37974;DHT22;23796;51.458;7.000;2024-02-16T13:58:47;14.70;99.90
37974;DHT22;23796;51.458;7.000;2024-02-16T14:01:13;14.60;99.90
37974;DHT22;23796;51.458;7.000;2024-02-16T14:03:40;14.60;99.90
37974;DHT22;23796;51.458;7.000;2024-02-16T14:06:06;14.50;99.90
37974;DHT22;23796;51.458;7.000;2024-02-16T14:08:36;14.50;99.90
37974;DHT22;23796;51.458;7.000;2024-02-16T14:11:01;14.50;99.90
37974;DHT22;23796;51.458;7.000;2024-02-16T14:13:27;14.30;99.90
37974;DHT22;23796;51.458;7.000;2024-02-16T14:15:54;14.20;99.90
37974;DHT22;23796;51.458;7.000;2024-02-16T14:18:20;14.10;99.90
37974;DHT22;23796;51.458;7.000;2024-02-16T14:20:45;13.90;99.90
37974;DHT22;23796;51.458;7.000;2024-02-16T14:23:13;13.70;99.90
37974;DHT22;23796;51.458;7.000;2024-02-16T14:25:39;13.70;99.90
37974;DHT22;23796;51.458;7.000;2024-02-16T14:28:06;13.60;99.90
37974;DHT22;23796;51.458;7.000;2024-02-16T14:30:33;13.50;99.90
37974;DHT22;23796;51.458;7.000;2024-02-16T14:33:01;13.50;99.90
37974;DHT22;23796;51.458;7.000;2024-02-16T14:35:30;13.40;99.90
37974;DHT22;23796;51.458;7.000;2024-02-16T14:38:02;13.40;99.90
37974;DHT22;23796;51.458;7.000;2024-02-16T14:40:27;13.40;99.90
37974;DHT22;23796;51.458;7.000;2024-02-16T14:42:53;13.40;99.90
37974;DHT22;23796;51.458;7.000;2024-02-16T14:45:18;13.30;99.90
37974;DHT22;23796;51.458;7.000;2024-02-16T14:47:46;13.20;99.90
37974;DHT22;23796;51.458;7.000;2024-02-16T14:50:12;13.20;99.90
37974;DHT22;23796;51.458;7.000;2024-02-16T14:52:41;13.10;99.90
37974;DHT22;23796;51.458;7.000;2024-02-16T14:55:07;13.00;99.90
37974;DHT22;23796;51.458;7.000;2024-02-16T14:57:39;13.10;99.90
37974;DHT22;23796;51.458;7.000;2024-02-16T15:00:09;13.20;99.90
37974;DHT22;23796;51.458;7.000;2024-02-16T15:02:36;13.10;99.90
37974;DHT22;23796;51.458;7.000;2024-02-16T15:05:05;13.10;99.90
37974;DHT22;23796;51.458;7.000;2024-02-16T15:07:31;13.10;99.90
37974;DHT22;23796;51.458;7.000;2024-02-16T15:09:59;13.10;99.90
37974;DHT22;23796;51.458;7.000;2024-02-16T15:12:27;13.10;99.90
37974;DHT22;23796;51.458;7.000;2024-02-16T15:14:55;13.10;99.90
37974;DHT22;23796;51.458;7.000;2024-02-16T15:17:21;13.10;99.90
37974;DHT22;23796;51.458;7.000;2024-02-16T15:19:47;13.00;99.90
37974;DHT22;23796;51.458;7.000;2024-02-16T15:22:12;13.00;99.90
37974;DHT22;23796;51.458;7.000;2024-02-16T15:24:38;12.90;99.90
37974;DHT22;23796;51.458;7.000;2024-02-16T15:27:04;12.90;99.90
37974;DHT22;23796;51.458;7.000;2024-02-16T15:29:30;12.90;99.90